Time;durP1;ratioP1;P1;durP2;ratioP2;P2;SDS_P1;SDS_P2;PMS_P1;PMS_P2;Temp;Humidity;BMP_temperature;BMP_pressure;BME280_temperature;BME280_humidity;BME280_pressure;Samples;Min_cycle;Max_cycle;Signal;HPM_P1;HPM_P2
2022/06/17 00:01:24;;;;;;;8.73;3.47;;;;;;;14.89;100.00;99998.74;1461567;95;21136;-73
2022/06/17 00:03:51;;;;;;;6.12;3.47;;;;;;;14.86;100.00;99994.55;1453789;99;21158;-73
2022/06/17 00:06:20;;;;;;;8.33;3.47;;;;;;;14.85;100.00;99982.50;1436672;99;21125;-74
2022/06/17 00:08:50;;;;;;;6.72;3.70;;;;;;;14.80;100.00;99980.37;1453845;99;21761;-73
2022/06/17 00:11:21;;;;;;;6.58;3.60;;;;;;;14.74;100.00;99979.29;1465815;96;21138;-72
2022/06/17 00:13:48;;;;;;;5.62;3.70;;;;;;;14.69;100.00;99974.97;1488090;95;21143;-73
2022/06/17 00:16:18;;;;;;;6.00;3.35;;;;;;;14.66;100.00;99964.50;1484474;96;21147;-72
2022/06/17 00:18:46;;;;;;;6.90;3.83;;;;;;;14.64;100.00;99961.11;1479891;97;21150;-72
2022/06/17 00:21:27;;;;;;;6.65;3.60;;;;;;;14.63;100.00;99958.62;1523387;92;21076;-74
2022/06/17 00:23:54;;;;;;;8.28;3.80;;;;;;;14.58;100.00;99957.84;1553402;92;21102;-73
2022/06/17 00:26:21;;;;;;;8.03;3.98;;;;;;;14.54;100.00;99964.17;1553124;92;21314;-72
2022/06/17 00:28:49;;;;;;;6.62;4.03;;;;;;;14.51;100.00;99950.95;1532778;92;21025;-74
2022/06/17 00:31:16;;;;;;;7.78;3.58;;;;;;;14.49;100.00;99952.21;1548724;91;21126;-73
2022/06/17 00:33:43;;;;;;;8.50;4.37;;;;;;;14.48;100.00;99946.44;1544859;93;21134;-73
2022/06/17 00:36:17;;;;;;;6.87;3.77;;;;;;;14.48;100.00;99943.72;1524466;93;21031;-72
2022/06/17 00:38:45;;;;;;;6.85;4.00;;;;;;;14.46;100.00;99937.11;1544914;93;21126;-72
2022/06/17 00:41:29;;;;;;;9.58;3.50;;;;;;;14.44;100.00;99934.58;1544702;92;21055;-73
2022/06/17 00:44:01;;;;;;;8.90;4.05;;;;;;;14.46;100.00;99937.64;1545340;93;21163;-72
2022/06/17 00:46:45;;;;;;;7.60;3.77;;;;;;;14.46;100.00;99926.75;1545558;93;21062;-74
2022/06/17 00:49:25;;;;;;;7.45;4.30;;;;;;;14.46;100.00;99925.39;1544580;93;21071;-72
2022/06/17 00:52:05;;;;;;;6.47;4.10;;;;;;;14.44;100.00;99937.30;1538198;93;21125;-73
2022/06/17 00:54:42;;;;;;;9.80;3.67;;;;;;;14.43;100.00;99932.09;1564792;90;21067;-72
2022/06/17 00:57:36;;;;;;;7.25;3.95;;;;;;;14.39;100.00;99931.62;1601163;87;21145;-73
2022/06/17 01:00:10;;;;;;;6.90;3.77;;;;;;;14.36;100.00;99928.45;1629271;86;21081;-73
2022/06/17 01:02:48;;;;;;;8.70;3.70;;;;;;;14.33;100.00;99927.52;1675637;86;21061;-73
2022/06/17 01:05:16;;;;;;;5.33;3.75;;;;;;;14.30;100.00;99920.58;1675776;86;21089;-73
2022/06/17 01:07:48;;;;;;;7.92;4.12;;;;;;;14.28;100.00;99925.37;1675790;86;21534;-72
2022/06/17 01:10:17;;;;;;;9.28;3.98;;;;;;;14.25;100.00;99920.33;1604151;87;21066;-73
2022/06/17 01:12:59;;;;;;;10.80;5.00;;;;;;;14.24;100.00;99910.50;1613910;88;21074;-72
2022/06/17 01:15:28;;;;;;;9.03;4.65;;;;;;;14.23;100.00;99915.61;1620712;88;20982;-72
2022/06/17 01:17:57;;;;;;;11.10;4.87;;;;;;;14.20;100.00;99906.48;1625647;88;21021;-73
2022/06/17 01:20:26;;;;;;;11.35;4.97;;;;;;;14.17;100.00;99903.65;1643199;83;21095;-72
2022/06/17 01:22:57;;;;;;;11.80;4.70;;;;;;;14.15;100.00;99897.58;1693595;83;21584;-72
2022/06/17 01:25:39;;;;;;;9.28;4.10;;;;;;;14.13;100.00;99895.58;1717272;83;21068;-73
2022/06/17 01:28:12;;;;;;;9.43;4.17;;;;;;;14.14;100.00;99900.48;1717160;83;21123;-72
2022/06/17 01:30:54;;;;;;;11.97;4.55;;;;;;;14.12;100.00;99887.61;1717504;82;21093;-74
2022/06/17 01:33:31;;;;;;;12.28;4.70;;;;;;;14.09;100.00;99874.41;1713505;84;21685;-72
2022/06/17 01:36:26;;;;;;;8.53;4.30;;;;;;;14.01;100.00;99875.41;1713484;84;21038;-74
2022/06/17 01:38:56;;;;;;;8.55;4.60;;;;;;;13.94;100.00;99867.19;1713693;84;21038;-73
2022/06/17 01:41:29;;;;;;;8.10;4.87;;;;;;;13.89;100.00;99860.67;1713494;84;21026;-72
2022/06/17 01:44:08;;;;;;;11.38;5.00;;;;;;;13.85;100.00;99856.98;1713992;84;21042;-73
2022/06/17 01:46:39;;;;;;;10.23;4.37;;;;;;;13.84;100.00;99840.34;1713439;84;21007;-73
2022/06/17 01:49:21;;;;;;;12.90;4.87;;;;;;;13.84;100.00;99838.16;1638257;86;21074;-73
2022/06/17 01:51:57;;;;;;;19.20;5.22;;;;;;;13.79;100.00;99833.33;1579335;91;21125;-73
2022/06/17 01:54:40;;;;;;;21.37;5.62;;;;;;;13.79;100.00;99839.26;1559606;91;21025;-74
2022/06/17 01:57:08;;;;;;;14.68;5.35;;;;;;;13.79;100.00;99827.03;1579705;91;21045;-74
2022/06/17 01:59:43;;;;;;;15.55;5.60;;;;;;;13.80;100.00;99816.50;1559631;89;21021;-73
2022/06/17 02:02:10;;;;;;;19.57;5.95;;;;;;;13.82;100.00;99818.49;1489243;95;21115;-73
2022/06/17 02:04:41;;;;;;;17.23;6.33;;;;;;;13.83;100.00;99814.22;1484937;97;21093;-73
2022/06/17 02:07:14;;;;;;;17.90;6.35;;;;;;;13.83;100.00;99822.38;1518903;93;21108;-72
2022/06/17 02:09:41;;;;;;;17.32;6.78;;;;;;;13.87;100.00;99829.61;1572126;91;21110;-73
2022/06/17 02:12:11;;;;;;;19.15;6.25;;;;;;;13.91;100.00;99832.77;1571940;91;21091;-73
2022/06/17 02:14:42;;;;;;;16.00;6.37;;;;;;;13.96;100.00;99842.01;1548161;91;21079;-73
2022/06/17 02:17:23;;;;;;;17.40;6.25;;;;;;;13.99;100.00;99848.42;1483897;97;21072;-74
2022/06/17 02:20:02;;;;;;;13.38;5.67;;;;;;;14.03;100.00;99852.94;1483834;97;21113;-72
2022/06/17 02:22:32;;;;;;;11.85;5.70;;;;;;;14.08;100.00;99848.24;1431181;99;21630;-73
2022/06/17 02:25:03;;;;;;;10.85;5.40;;;;;;;14.12;100.00;99844.94;1481761;95;21066;-73
2022/06/17 02:27:31;;;;;;;12.15;5.87;;;;;;;14.13;100.00;99831.69;1448781;99;21134;-72
2022/06/17 02:29:59;;;;;;;11.48;5.10;;;;;;;14.20;100.00;99836.64;1468669;97;21772;-74
2022/06/17 02:32:27;;;;;;;10.60;5.17;;;;;;;14.24;100.00;99837.08;1441336;98;21170;-73
2022/06/17 02:35:21;;;;;;;14.83;5.50;;;;;;;14.26;100.00;99836.88;1423922;101;21098;-73
2022/06/17 02:37:48;;;;;;;11.30;4.95;;;;;;;14.29;100.00;99842.77;1425001;101;21699;-73
2022/06/17 02:40:26;;;;;;;10.55;5.17;;;;;;;14.30;100.00;99842.23;1424117;99;21106;-73
2022/06/17 02:42:53;;;;;;;14.28;5.53;;;;;;;14.31;100.00;99837.95;1412611;102;21112;-73
2022/06/17 02:45:24;;;;;;;16.93;7.20;;;;;;;14.33;100.00;99839.95;1411626;101;21605;-73
2022/06/17 02:47:52;;;;;;;17.48;7.00;;;;;;;14.35;100.00;99840.58;1418169;100;21127;-73
2022/06/17 02:50:25;;;;;;;20.25;7.37;;;;;;;14.39;100.00;99840.49;1433672;100;21663;-73
2022/06/17 02:52:54;;;;;;;15.53;6.42;;;;;;;14.43;100.00;99838.24;1432506;98;21214;-73
2022/06/17 02:55:32;;;;;;;20.02;7.37;;;;;;;14.46;100.00;99831.55;1458972;98;21112;-71
2022/06/17 02:58:08;;;;;;;22.15;7.50;;;;;;;14.49;100.00;99832.51;1457252;98;21562;-74
2022/06/17 03:00:36;;;;;;;20.30;6.92;;;;;;;14.49;100.00;99834.70;1436778;100;21213;-73
2022/06/17 03:03:05;;;;;;;16.87;6.50;;;;;;;14.50;100.00;99834.17;1452998;97;21171;-74
2022/06/17 03:05:36;;;;;;;16.48;5.62;;;;;;;14.53;100.00;99837.86;1452862;99;21094;-71
2022/06/17 03:08:13;;;;;;;17.85;6.50;;;;;;;14.55;100.00;99840.68;1452954;99;21098;-73
2022/06/17 03:10:42;;;;;;;18.73;6.28;;;;;;;14.60;100.00;99857.80;1448307;98;21695;-73
2022/06/17 03:13:17;;;;;;;17.37;6.20;;;;;;;14.63;100.00;99860.12;1460153;95;21115;-73
2022/06/17 03:15:48;;;;;;;19.23;6.60;;;;;;;14.67;100.00;99866.84;1456600;97;21665;-73
2022/06/17 03:18:15;;;;;;;18.10;6.67;;;;;;;14.71;100.00;99866.73;1469259;96;21574;-73
2022/06/17 03:20:43;;;;;;;18.12;6.37;;;;;;;14.77;100.00;99870.03;1502976;95;21075;-73
2022/06/17 03:23:16;;;;;;;16.70;6.25;;;;;;;14.84;100.00;99858.31;1509697;95;21074;-73
2022/06/17 03:25:56;;;;;;;14.43;5.85;;;;;;;14.92;100.00;99856.78;1491544;95;21079;-72
2022/06/17 03:28:30;;;;;;;12.55;5.65;;;;;;;14.99;100.00;99848.12;1491414;95;21107;-73
2022/06/17 03:31:11;;;;;;;14.95;5.97;;;;;;;15.07;100.00;99841.64;1497383;95;21222;-74
2022/06/17 03:34:07;;;;;;;17.92;6.42;;;;;;;15.17;100.00;99844.31;1517146;95;21120;-72
2022/06/17 03:37:13;;;;;;;14.68;6.50;;;;;;;15.31;100.00;99834.25;1517115;95;21610;-72
2022/06/17 03:39:56;;;;;;;16.70;6.47;;;;;;;15.49;100.00;99828.73;1489971;96;21188;-74
2022/06/17 03:42:31;;;;;;;19.15;6.87;;;;;;;15.65;100.00;99828.34;1487503;96;21129;-72
2022/06/17 03:45:05;;;;;;;18.52;7.40;;;;;;;15.81;100.00;99831.70;1453622;97;21084;-71
2022/06/17 03:47:47;;;;;;;23.02;7.30;;;;;;;15.94;100.00;99826.25;1472164;96;21142;-72
2022/06/17 03:50:35;;;;;;;20.48;7.30;;;;;;;16.08;100.00;99828.45;1470084;97;21080;-72
2022/06/17 03:53:19;;;;;;;17.65;6.47;;;;;;;16.23;100.00;99833.11;1458249;94;21658;-72
2022/06/17 03:55:46;;;;;;;;;;;;;;;16.40;100.00;99857.23;1527235;94;21108;-72
2022/06/17 03:58:16;;;;;;;17.45;7.30;;;;;;;16.58;100.00;99866.93;1568616;91;20124;-74
2022/06/17 04:01:13;;;;;;;16.02;6.70;;;;;;;16.74;100.00;99871.08;1550372;91;21571;-72
2022/06/17 04:03:44;;;;;;;19.82;7.97;;;;;;;16.89;100.00;99885.84;1574005;91;21503;-74
2022/06/17 04:06:17;;;;;;;18.83;7.67;;;;;;;17.03;100.00;99889.36;1573859;91;21054;-74
2022/06/17 04:08:55;;;;;;;23.38;8.13;;;;;;;17.15;100.00;99903.19;1573844;91;21110;-72
2022/06/17 04:11:28;;;;;;;23.30;9.40;;;;;;;17.24;100.00;99910.07;1482703;95;21663;-74
2022/06/17 04:13:58;;;;;;;23.22;10.18;;;;;;;17.38;100.00;99923.97;1483185;97;21162;-73
2022/06/17 04:16:55;;;;;;;23.20;9.20;;;;;;;17.55;100.00;99935.25;1484426;97;21142;-72
2022/06/17 04:19:25;;;;;;;21.87;10.10;;;;;;;17.71;100.00;99945.36;1484336;96;21126;-72
2022/06/17 04:22:02;;;;;;;23.18;11.28;;;;;;;17.87;100.00;99940.75;1484312;97;21082;-73
2022/06/17 04:24:31;;;;;;;26.25;11.35;;;;;;;18.02;100.00;99936.31;1470676;98;21073;-73
2022/06/17 04:27:05;;;;;;;25.15;11.40;;;;;;;18.21;100.00;99939.41;1432559;99;21156;-72
2022/06/17 04:29:40;;;;;;;23.75;10.50;;;;;;;18.45;100.00;99947.86;1426357;100;21131;-73
2022/06/17 04:32:25;;;;;;;22.70;10.82;;;;;;;18.70;100.00;99953.28;1411772;102;21141;-73
2022/06/17 04:34:52;;;;;;;25.60;10.68;;;;;;;19.01;100.00;99964.36;1413729;101;21181;-73
2022/06/17 04:37:20;;;;;;;22.65;10.05;;;;;;;19.35;100.00;99988.92;1389630;103;21115;-72
2022/06/17 04:39:54;;;;;;;26.60;10.63;;;;;;;19.65;100.00;100000.45;1403608;102;21139;-73
2022/06/17 04:42:34;;;;;;;20.30;9.58;;;;;;;19.95;100.00;100012.00;1411947;102;21131;-72
2022/06/17 04:45:02;;;;;;;24.60;10.10;;;;;;;20.25;100.00;100026.52;1436102;100;21174;-72
2022/06/17 04:47:32;;;;;;;20.90;9.10;;;;;;;20.56;100.00;100033.34;1436294;100;21600;-73
2022/06/17 04:50:09;;;;;;;20.40;9.55;;;;;;;20.83;100.00;100048.30;1439883;98;22328;-73
2022/06/17 04:52:41;;;;;;;19.50;8.95;;;;;;;21.10;100.00;100060.73;1454321;99;21680;-74
2022/06/17 04:55:28;;;;;;;22.95;9.90;;;;;;;21.42;100.00;100072.16;1414964;101;21708;-73
2022/06/17 04:58:03;;;;;;;19.80;9.03;;;;;;;21.70;100.00;100085.72;1359817;106;21131;-73
2022/06/17 05:00:31;;;;;;;22.32;9.55;;;;;;;22.00;100.00;100099.27;1359847;103;21134;-75
2022/06/17 05:03:00;;;;;;;19.07;9.23;;;;;;;22.27;100.00;100111.91;1359813;106;21126;-73
2022/06/17 05:05:35;;;;;;;19.35;9.73;;;;;;;22.52;100.00;100108.81;1315169;109;21667;-72
2022/06/17 05:08:08;;;;;;;19.50;8.70;;;;;;;22.76;100.00;100121.06;1290559;109;21235;-73
2022/06/17 05:10:41;;;;;;;20.25;10.20;;;;;;;22.98;100.00;100129.41;1291686;111;21240;-72
2022/06/17 05:13:19;;;;;;;18.20;8.63;;;;;;;23.22;100.00;100132.86;1303499;110;21190;-73
2022/06/17 05:15:49;;;;;;;18.67;8.65;;;;;;;23.44;100.00;100138.44;1276495;112;21691;-75
2022/06/17 05:18:17;;;;;;;19.02;8.50;;;;;;;23.61;100.00;100144.45;1286385;110;21233;-75
2022/06/17 05:20:45;;;;;;;22.25;9.18;;;;;;;23.74;100.00;100155.66;1284580;112;21204;-73
2022/06/17 05:23:14;;;;;;;17.32;8.20;;;;;;;23.83;100.00;100164.67;1291774;111;21243;-73
2022/06/17 05:25:47;;;;;;;17.42;8.00;;;;;;;23.97;100.00;100164.27;1293240;111;21234;-69
2022/06/17 05:28:17;;;;;;;19.02;9.28;;;;;;;24.14;100.00;100162.28;1305792;107;21133;-73
2022/06/17 05:30:51;;;;;;;19.65;9.63;;;;;;;24.35;100.00;100162.53;1317274;107;21207;-69
2022/06/17 05:33:19;;;;;;;24.10;8.65;;;;;;;24.57;100.00;100174.38;1356687;106;21594;-70
2022/06/17 05:35:51;;;;;;;16.52;7.12;;;;;;;24.74;100.00;100177.61;1409694;100;21733;-69
2022/06/17 05:38:18;;;;;;;16.95;6.78;;;;;;;24.87;100.00;100173.01;1433474;100;21144;-69
2022/06/17 05:40:45;;;;;;;8.25;3.80;;;;;;;24.96;100.00;100175.58;1432048;100;21699;-70
2022/06/17 05:43:13;;;;;;;12.40;5.60;;;;;;;25.04;100.00;100180.34;1443001;97;21175;-71
2022/06/17 05:45:41;;;;;;;12.05;4.55;;;;;;;25.20;100.00;100187.69;1465420;98;21140;-70
2022/06/17 05:48:29;;;;;;;6.40;3.30;;;;;;;25.36;100.00;100181.19;1462988;98;21132;-70
2022/06/17 05:51:02;;;;;;;4.95;2.00;;;;;;;25.54;100.00;100179.09;1436215;95;21441;-75
2022/06/17 05:53:34;;;;;;;2.47;2.00;;;;;;;25.68;96.92;100183.05;1499090;93;21172;-75
2022/06/17 05:56:07;;;;;;;4.85;2.52;;;;;;;25.78;89.66;100183.64;1572235;91;21098;-74
2022/06/17 05:58:36;;;;;;;4.42;1.80;;;;;;;25.89;91.62;100185.38;1556092;92;21074;-74
2022/06/17 06:01:03;;;;;;;12.15;4.85;;;;;;;26.05;86.86;100183.55;1587531;90;21085;-74
2022/06/17 06:03:30;;;;;;;4.85;2.77;;;;;;;26.18;81.33;100192.47;1587485;90;21081;-74
2022/06/17 06:06:01;;;;;;;5.62;2.42;;;;;;;26.25;79.51;100188.33;1575488;89;21177;-74
2022/06/17 06:08:28;;;;;;;3.80;2.30;;;;;;;26.41;81.78;100184.23;1587535;90;21134;-76
2022/06/17 06:10:57;;;;;;;13.10;2.92;;;;;;;26.56;79.62;100184.80;1597950;87;21133;-75
2022/06/17 06:13:26;;;;;;;5.17;2.62;;;;;;;26.60;72.99;100183.17;1639032;87;21591;-71
2022/06/17 06:15:57;;;;;;;6.67;2.80;;;;;;;26.55;74.63;100175.66;1618793;87;21038;-70
2022/06/17 06:18:33;;;;;;;6.00;3.22;;;;;;;26.63;76.64;100177.08;1612739;88;21156;-71
2022/06/17 06:21:04;;;;;;;8.13;3.40;;;;;;;26.79;79.39;100173.77;1617934;88;21157;-71
2022/06/17 06:23:36;;;;;;;7.35;2.80;;;;;;;26.97;79.48;100162.16;1584084;90;21069;-70
2022/06/17 06:26:03;;;;;;;5.87;3.00;;;;;;;27.19;75.96;100163.80;1584332;91;21070;-71
2022/06/17 06:28:30;;;;;;;7.83;2.98;;;;;;;27.22;69.66;100158.53;1591512;90;21502;-71
2022/06/17 06:31:29;;;;;;;6.67;3.55;;;;;;;27.12;67.51;100157.70;1600899;88;21600;-70
2022/06/17 06:33:58;;;;;;;22.87;15.48;;;;;;;27.11;65.40;100161.05;1608006;88;21109;-70
2022/06/17 06:36:28;;;;;;;14.85;8.03;;;;;;;27.16;62.35;100161.05;1699163;84;21559;-70
2022/06/17 06:38:56;;;;;;;5.33;3.65;;;;;;;27.25;62.72;100157.98;1675975;84;21042;-69
2022/06/17 06:41:26;;;;;;;7.03;3.20;;;;;;;27.44;63.06;100158.23;1719090;83;21080;-70
2022/06/17 06:43:53;;;;;;;8.03;4.17;;;;;;;27.60;60.20;100148.48;1719150;83;21096;-74
2022/06/17 06:46:24;;;;;;;50.98;41.92;;;;;;;27.75;60.64;100143.45;1720347;83;21061;-73
2022/06/17 06:48:51;;;;;;;11.43;6.72;;;;;;;27.95;61.63;100141.18;1725560;83;20990;-70
2022/06/17 06:51:20;;;;;;;12.15;5.78;;;;;;;28.09;60.85;100138.63;1721483;83;21003;-72
2022/06/17 06:53:57;;;;;;;8.23;3.60;;;;;;;28.14;62.36;100138.03;1725216;82;21023;-73
2022/06/17 06:56:28;;;;;;;8.85;4.00;;;;;;;28.27;60.40;100138.52;1725141;83;21126;-72
2022/06/17 06:58:55;;;;;;;8.23;3.80;;;;;;;28.25;61.57;100143.55;1704174;83;21455;-73
2022/06/17 07:01:23;;;;;;;7.00;3.50;;;;;;;28.25;59.70;100133.24;1726103;83;21092;-69
2022/06/17 07:03:50;;;;;;;12.28;7.42;;;;;;;28.34;59.88;100132.91;1725312;83;21021;-72
2022/06/17 07:06:18;;;;;;;10.15;5.55;;;;;;;28.43;56.66;100128.95;1720659;83;21052;-70
2022/06/17 07:08:47;;;;;;;6.20;3.52;;;;;;;28.49;57.63;100133.38;1723120;83;21052;-70
2022/06/17 07:11:18;;;;;;;4.97;3.10;;;;;;;28.67;55.44;100135.22;1715618;83;21054;-74
2022/06/17 07:13:46;;;;;;;12.23;3.90;;;;;;;28.85;52.30;100142.05;1700752;84;21098;-73
2022/06/17 07:16:15;;;;;;;7.80;3.50;;;;;;;29.07;51.12;100127.66;1721257;83;21017;-73
2022/06/17 07:18:42;;;;;;;6.60;3.30;;;;;;;29.16;48.07;100123.14;1778616;80;21017;-73
2022/06/17 07:21:12;;;;;;;6.08;2.80;;;;;;;29.16;49.34;100114.79;1784741;80;21101;-73
2022/06/17 07:23:44;;;;;;;7.22;3.37;;;;;;;29.25;47.52;100123.34;1734207;80;22518;-73
2022/06/17 07:26:16;;;;;;;6.55;2.80;;;;;;;29.31;48.34;100123.56;1785263;80;21555;-74
2022/06/17 07:28:44;;;;;;;3.58;2.55;;;;;;;29.51;48.18;100110.80;1785036;80;21014;-75
2022/06/17 07:31:12;;;;;;;5.55;2.60;;;;;;;29.71;43.56;100114.47;1785010;80;21002;-74
2022/06/17 07:33:40;;;;;;;1.87;1.77;;;;;;;29.69;42.04;100120.91;1807036;79;21082;-72
2022/06/17 07:36:09;;;;;;;1.17;1.17;;;;;;;29.59;40.49;100123.27;1819395;79;21463;-73
2022/06/17 07:41:24;;;;;;;6.80;3.67;;;;;;;29.47;38.98;100109.73;1818434;79;21603;-74
2022/06/17 07:43:53;;;;;;;7.35;2.80;;;;;;;29.62;41.67;100112.89;1818947;79;21031;-73
2022/06/17 07:46:21;;;;;;;5.85;3.00;;;;;;;29.85;41.26;100116.00;1819668;79;20997;-76
2022/06/17 07:48:49;;;;;;;3.75;2.72;;;;;;;30.06;42.04;100105.42;1819263;79;21036;-73
2022/06/17 07:51:17;;;;;;;6.92;3.98;;;;;;;30.26;41.58;100098.17;1792223;79;20993;-74
2022/06/17 07:53:45;;;;;;;7.05;4.40;;;;;;;30.32;41.56;100102.28;1792392;79;21063;-76
2022/06/17 07:56:15;;;;;;;5.37;2.87;;;;;;;30.23;40.22;100107.12;1819888;79;20989;-76
2022/06/17 07:58:44;;;;;;;14.60;3.50;;;;;;;30.04;40.79;100105.71;1819876;78;21529;-75
2022/06/17 08:01:12;;;;;;;12.45;3.47;;;;;;;30.03;41.82;100105.47;1818889;79;21086;-75
2022/06/17 08:03:42;;;;;;;12.13;3.22;;;;;;;30.13;40.59;100102.27;1792939;79;21048;-79
2022/06/17 08:06:13;;;;;;;5.78;2.60;;;;;;;30.21;39.27;100108.58;1677977;85;21060;-74
2022/06/17 08:08:42;;;;;;;5.25;2.25;;;;;;;30.31;39.70;100101.42;1679194;85;21104;-76
2022/06/17 08:11:11;;;;;;;3.58;2.15;;;;;;;30.37;39.30;100104.45;1668936;86;21084;-74
2022/06/17 08:13:50;;;;;;;5.75;2.40;;;;;;;30.51;38.21;100098.94;1596441;86;21178;-78
2022/06/17 08:16:35;;;;;;;5.13;2.43;;;;;;;30.44;35.45;100106.29;1581542;89;21116;-77
2022/06/17 08:21:32;;;;;;;4.40;2.60;;;;;;;30.31;36.66;100100.61;1525933;93;21108;-76
2022/06/17 08:23:59;;;;;;;4.03;2.50;;;;;;;30.32;36.96;100100.31;1529791;93;21124;-76
2022/06/17 08:26:26;;;;;;;7.22;2.55;;;;;;;30.33;37.28;100099.16;1510365;94;21042;-77
2022/06/17 08:28:54;;;;;;;4.87;3.20;;;;;;;30.46;37.85;100095.66;1521493;94;21144;-76
2022/06/17 08:31:22;;;;;;;9.43;5.45;;;;;;;30.52;37.01;100103.38;1525301;93;21197;-75
2022/06/17 08:33:49;;;;;;;17.85;10.55;;;;;;;30.56;38.64;100100.26;1538534;92;21579;-77
2022/06/17 08:36:19;;;;;;;7.72;4.20;;;;;;;30.79;38.34;100094.84;1533615;93;21105;-75
2022/06/17 08:39:00;;;;;;;4.87;2.72;;;;;;;30.97;37.12;100086.18;1537081;93;21054;-79
2022/06/17 08:41:33;;;;;;;3.62;2.80;;;;;;;31.09;36.69;100099.08;1524495;93;21123;-79
2022/06/17 08:44:14;;;;;;;6.60;3.10;;;;;;;31.19;35.98;100091.10;1521978;94;21138;-76
2022/06/17 08:47:09;;;;;;;3.98;2.45;;;;;;;31.28;35.40;100090.64;1519586;94;21126;-78
2022/06/17 08:49:57;;;;;;;7.72;2.77;;;;;;;31.13;34.11;100086.73;1522457;94;21098;-77
2022/06/17 08:52:56;;;;;;;5.72;3.00;;;;;;;30.77;35.51;100081.77;1473755;97;21179;-77
2022/06/17 08:55:44;;;;;;;4.60;2.67;;;;;;;30.83;35.68;100084.75;1470715;97;21182;-75
2022/06/17 08:58:31;;;;;;;6.25;2.80;;;;;;;30.90;35.19;100090.76;1470451;98;21161;-76
2022/06/17 09:01:29;;;;;;;8.83;3.40;;;;;;;31.10;35.21;100087.38;1470096;98;21345;-74
2022/06/17 09:04:24;;;;;;;23.15;4.40;;;;;;;31.36;35.68;100086.29;1542874;92;21988;-66
2022/06/17 09:06:57;;;;;;;7.85;3.30;;;;;;;31.62;35.53;100087.22;1537396;90;21135;-66
2022/06/17 09:09:42;;;;;;;21.65;4.45;;;;;;;31.85;36.31;100076.38;1485504;96;21125;-68
2022/06/17 09:12:29;;;;;;;9.70;3.70;;;;;;;32.06;35.10;100085.17;1506583;95;21058;-66
2022/06/17 09:15:22;;;;;;;7.47;3.55;;;;;;;32.28;34.42;100087.75;1549406;89;21116;-68
2022/06/17 09:18:20;;;;;;;7.50;3.20;;;;;;;32.34;33.34;100083.12;1528606;91;21172;-68
2022/06/17 09:20:50;;;;;;;6.10;3.40;;;;;;;32.44;32.87;100074.22;1576092;91;21136;-70
2022/06/17 09:23:21;;;;;;;6.47;3.15;;;;;;;32.30;31.53;100079.89;1575743;91;21134;-67
2022/06/17 09:25:49;;;;;;;3.65;3.10;;;;;;;32.09;32.17;100075.34;1575848;91;21066;-67
2022/06/17 09:28:24;;;;;;;6.28;2.60;;;;;;;32.10;32.71;100076.98;1587534;86;21099;-67
2022/06/17 09:31:01;;;;;;;4.25;2.62;;;;;;;32.07;31.84;100072.03;1640916;86;21072;-68
2022/06/17 09:33:36;;;;;;;4.08;2.87;;;;;;;32.00;30.89;100066.84;1641832;86;21041;-70
2022/06/17 09:36:32;;;;;;;5.45;2.55;;;;;;;31.83;31.76;100061.88;1637759;87;21092;-67
2022/06/17 09:39:13;;;;;;;7.30;2.52;;;;;;;32.01;30.39;100069.05;1638895;87;21073;-69
2022/06/17 09:42:02;;;;;;;11.38;3.08;;;;;;;32.20;30.68;100064.74;1638753;87;21084;-67
2022/06/17 09:44:35;;;;;;;4.40;2.33;;;;;;;32.54;31.78;100059.41;1638734;87;21017;-68
2022/06/17 09:47:28;;;;;;;9.43;2.77;;;;;;;32.99;29.65;100065.59;1639083;87;21026;-70
2022/06/17 09:49:59;;;;;;;2.95;2.60;;;;;;;33.14;29.14;100066.34;1638862;87;21061;-70
2022/06/17 09:52:39;;;;;;;2.30;2.20;;;;;;;33.15;30.40;100063.78;1638274;87;21143;-71
2022/06/17 09:55:16;;;;;;;4.20;3.00;;;;;;;33.13;28.77;100059.93;1638511;87;21623;-69
2022/06/17 09:58:06;;;;;;;6.08;2.70;;;;;;;32.73;29.23;100071.84;1638827;87;21077;-69
2022/06/17 10:00:45;;;;;;;3.25;2.10;;;;;;;32.56;30.27;100068.88;1622519;87;21084;-77
2022/06/17 10:03:25;;;;;;;5.53;2.37;;;;;;;32.22;28.23;100066.06;1622397;88;21082;-76
2022/06/17 10:06:25;;;;;;;6.45;2.30;;;;;;;31.63;28.77;100063.16;1636412;86;21080;-74
2022/06/17 10:09:28;;;;;;;8.05;3.92;;;;;;;31.11;29.22;100070.86;1669677;86;21609;-74
2022/06/17 10:12:04;;;;;;;6.87;3.90;;;;;;;30.35;30.33;100071.00;1660399;86;21559;-72
2022/06/17 10:14:53;;;;;;;7.37;3.80;;;;;;;29.71;34.55;100066.55;1767550;81;21048;-78
2022/06/17 10:21:00;;;;;;;11.28;7.80;;;;;;;29.08;37.41;100061.95;1777052;81;21582;-78
2022/06/17 10:24:00;;;;;;;6.55;3.98;;;;;;;29.07;39.55;100060.85;1713591;84;20985;-74
2022/06/17 10:26:44;;;;;;;16.57;4.30;;;;;;;29.56;38.32;100058.95;1714206;84;21077;-79
2022/06/17 10:29:42;;;;;;;7.40;3.47;;;;;;;29.83;37.37;100054.98;1711378;84;21084;-76
2022/06/17 10:32:10;;;;;;;7.65;4.17;;;;;;;29.76;37.15;100058.70;1713324;84;21137;-77
2022/06/17 10:34:57;;;;;;;3.83;3.10;;;;;;;29.66;37.43;100054.63;1655865;85;21064;-78
2022/06/17 10:37:26;;;;;;;6.92;2.80;;;;;;;29.57;36.95;100046.12;1706550;84;21016;-78
2022/06/17 10:39:53;;;;;;;19.10;4.37;;;;;;;29.41;37.77;100052.98;1706676;84;21025;-75
2022/06/17 10:42:20;;;;;;;6.03;2.95;;;;;;;29.20;38.30;100048.21;1706974;84;21538;-78
2022/06/17 10:44:51;;;;;;;4.15;3.25;;;;;;;29.02;38.39;100048.38;1678574;85;21001;-78
2022/06/17 10:47:36;;;;;;;6.60;2.85;;;;;;;28.94;39.71;100042.90;1706739;84;21108;-75
2022/06/17 10:50:17;;;;;;;3.95;2.30;;;;;;;28.97;40.14;100045.11;1678245;85;21147;-76
2022/06/17 10:52:49;;;;;;;2.65;2.20;;;;;;;29.07;41.05;100038.02;1704918;84;21024;-77
2022/06/17 10:55:21;;;;;;;5.22;2.60;;;;;;;30.27;40.43;100025.91;1683234;84;21077;-76
2022/06/17 10:58:07;;;;;;;2.52;2.00;;;;;;;30.27;40.43;100025.91;1720397;83;21082;-78
2022/06/17 11:01:03;;;;;;;4.90;2.55;;;;;;;30.93;38.22;100018.97;1702420;83;21539;-79
2022/06/17 11:03:35;;;;;;;2.60;2.20;;;;;;;31.47;36.19;100014.31;1728820;83;21037;-79
2022/06/17 11:06:13;;;;;;;6.05;2.45;;;;;;;31.97;36.39;100012.94;1701246;83;21479;-78
2022/06/17 11:08:58;;;;;;;3.35;2.30;;;;;;;32.33;34.78;100017.14;1727739;83;21034;-75
2022/06/17 11:14:46;;;;;;;4.78;2.70;;;;;;;32.55;31.34;100018.27;1723669;83;21059;-80
2022/06/17 11:17:43;;;;;;;9.80;2.65;;;;;;;32.17;30.54;100021.43;1608131;89;21191;-76
2022/06/17 11:20:23;;;;;;;3.15;2.50;;;;;;;31.89;29.48;100016.47;1698130;84;21025;-75
2022/06/17 11:22:59;;;;;;;3.65;2.67;;;;;;;31.87;30.03;100013.98;1697892;83;21641;-75
2022/06/17 11:25:35;;;;;;;15.23;3.25;;;;;;;31.77;31.05;100007.25;1700446;84;21045;-77
2022/06/17 11:28:25;;;;;;;20.10;2.98;;;;;;;31.62;31.89;100011.77;1701276;84;21018;-77
2022/06/17 11:31:00;;;;;;;5.75;2.80;;;;;;;31.27;31.73;100008.55;1644381;87;21072;-81
2022/06/17 11:36:18;;;;;;;5.62;2.60;;;;;;;30.17;32.29;100016.87;1556748;92;21093;-76
2022/06/17 11:38:45;;;;;;;3.22;2.12;;;;;;;29.75;33.57;100008.81;1512568;95;21633;-77
2022/06/17 11:41:28;;;;;;;5.30;2.10;;;;;;;29.57;34.43;100007.13;1512948;95;21748;-77
2022/06/17 11:44:04;;;;;;;7.80;2.30;;;;;;;29.39;34.08;100006.52;1512922;94;21078;-76
2022/06/17 11:46:33;;;;;;;16.82;3.20;;;;;;;29.17;34.71;100012.06;1464038;98;21185;-77
2022/06/17 11:49:15;;;;;;;4.80;2.77;;;;;;;28.91;36.00;100007.30;1463856;98;21093;-76
2022/06/17 11:51:49;;;;;;;6.73;3.27;;;;;;;28.66;37.86;100011.99;1464534;98;21113;-76
2022/06/17 11:54:25;;;;;;;7.03;3.40;;;;;;;28.50;40.31;100014.05;1480447;97;21100;-78
2022/06/17 11:56:52;;;;;;;6.65;3.58;;;;;;;28.44;42.52;100014.38;1462336;98;21096;-76
2022/06/17 11:59:29;;;;;;;7.37;3.70;;;;;;;28.46;44.10;100010.20;1461922;98;21597;-77
2022/06/17 12:02:07;;;;;;;13.83;4.30;;;;;;;28.49;43.84;100014.34;1462620;98;21034;-80
2022/06/17 12:04:51;;;;;;;7.60;3.60;;;;;;;28.51;46.06;100011.55;1461906;98;21046;-77
2022/06/17 12:07:55;;;;;;;5.62;3.52;;;;;;;28.55;45.15;100014.61;1461974;98;21069;-80
2022/06/17 12:10:31;;;;;;;9.58;3.85;;;;;;;28.51;44.41;99999.61;1461763;98;21170;-79